LFMP 221130Z AUTO 12004KT 060V200 CAVOK 16/07 Q1033 NOSIG

ElémentsDécodage
LFMP Station météo située sur l'aérodrome de PERPIGNAN Rivesaltes
221130Z émis le 22 du mois à 11h30 UTC
AUTO Bulletin édité par un automate
12004KT vent du 120°, 04 noeuds
060V200 vent de direction variable entre 060° et 200°
CAVOK Ceiling And Visibility OK
- Visibilité de 10 Km ou plus
- Pas de nuage au-dessous de 1500m ou au-dessous de l'altitude minimale du secteur la plus élevée (si>1500m) et absence de CB
- pas de temps présent significatif
16/07 température 16°C, point de rosée 07°C
 soit une humidité relative de 55%
Q1033 la pression au niveau de la mer (QNH) est de 1033 hPa
NOSIG Pas de changement significatif prévu au cours des deux heures suivant l'heure de l'observation